sensor_id;sensor_type;location;lat;lon;timestamp;pressure;altitude;pressure_sealevel;temperature;humidity
33161;BME280;19522;45.656;11.302;2023-04-08T00:00:32;98277.28;;;6.43;67.61
33161;BME280;19522;45.656;11.302;2023-04-08T00:02:57;98263.09;;;6.33;67.79
33161;BME280;19522;45.656;11.302;2023-04-08T00:05:28;98306.66;;;6.54;68.35
33161;BME280;19522;45.656;11.302;2023-04-08T00:07:53;98302.75;;;6.49;68.14
33161;BME280;19522;45.656;11.302;2023-04-08T00:10:19;98307.97;;;6.42;68.64
33161;BME280;19522;45.656;11.302;2023-04-08T00:12:46;98302.91;;;6.39;68.72
33161;BME280;19522;45.656;11.302;2023-04-08T00:15:12;98301.25;;;6.46;68.36
33161;BME280;19522;45.656;11.302;2023-04-08T00:17:38;98299.56;;;6.53;67.83
33161;BME280;19522;45.656;11.302;2023-04-08T00:20:04;98308.84;;;6.51;67.90
33161;BME280;19522;45.656;11.302;2023-04-08T00:22:30;98262.56;;;6.21;67.64
33161;BME280;19522;45.656;11.302;2023-04-08T00:24:56;98276.59;;;6.33;67.17
33161;BME280;19522;45.656;11.302;2023-04-08T00:27:22;98288.44;;;6.48;66.79
33161;BME280;19522;45.656;11.302;2023-04-08T00:29:50;98299.22;;;6.57;66.40
33161;BME280;19522;45.656;11.302;2023-04-08T00:32:15;98279.34;;;6.74;65.87
33161;BME280;19522;45.656;11.302;2023-04-08T00:34:41;98256.56;;;6.52;65.64
33161;BME280;19522;45.656;11.302;2023-04-08T00:37:07;98272.91;;;6.50;66.30
33161;BME280;19522;45.656;11.302;2023-04-08T00:39:33;98306.63;;;6.46;66.49
33161;BME280;19522;45.656;11.302;2023-04-08T00:41:58;98317.69;;;6.18;67.83
33161;BME280;19522;45.656;11.302;2023-04-08T00:44:24;98315.53;;;5.96;68.49
33161;BME280;19522;45.656;11.302;2023-04-08T00:46:49;98244.72;;;5.77;67.53
33161;BME280;19522;45.656;11.302;2023-04-08T00:49:15;98320.91;;;6.30;67.02
33161;BME280;19522;45.656;11.302;2023-04-08T00:51:41;98314.03;;;6.36;66.69
33161;BME280;19522;45.656;11.302;2023-04-08T00:54:07;98316.22;;;6.41;66.17
33161;BME280;19522;45.656;11.302;2023-04-08T00:56:33;98323.78;;;5.94;67.91
33161;BME280;19522;45.656;11.302;2023-04-08T00:58:59;98328.28;;;6.12;67.79
33161;BME280;19522;45.656;11.302;2023-04-08T01:09:46;98330.16;;;6.19;68.21
33161;BME280;19522;45.656;11.302;2023-04-08T01:12:19;98315.94;;;6.01;68.95
33161;BME280;19522;45.656;11.302;2023-04-08T01:14:47;98323.38;;;6.07;68.72
33161;BME280;19522;45.656;11.302;2023-04-08T01:17:17;98337.53;;;6.09;68.57
33161;BME280;19522;45.656;11.302;2023-04-08T01:19:45;98298.31;;;5.80;68.29
33161;BME280;19522;45.656;11.302;2023-04-08T01:24:49;98329.50;;;6.26;67.97
33161;BME280;19522;45.656;11.302;2023-04-08T01:27:16;98308.31;;;5.96;68.34
33161;BME280;19522;45.656;11.302;2023-04-08T01:29:44;98329.41;;;6.01;68.68
33161;BME280;19522;45.656;11.302;2023-04-08T01:32:10;98269.59;;;5.63;68.54
33161;BME280;19522;45.656;11.302;2023-04-08T01:34:37;98326.56;;;6.02;69.22
33161;BME280;19522;45.656;11.302;2023-04-08T01:37:05;98323.31;;;5.99;68.68
33161;BME280;19522;45.656;11.302;2023-04-08T01:39:32;98321.47;;;5.99;68.31
33161;BME280;19522;45.656;11.302;2023-04-08T01:41:59;98330.34;;;5.91;68.41
33161;BME280;19522;45.656;11.302;2023-04-08T01:44:26;98323.06;;;5.84;68.84
33161;BME280;19522;45.656;11.302;2023-04-08T01:46:53;98319.81;;;6.06;68.49
33161;BME280;19522;45.656;11.302;2023-04-08T01:49:21;98328.75;;;6.07;67.94
33161;BME280;19522;45.656;11.302;2023-04-08T01:51:48;98323.28;;;5.90;68.08
33161;BME280;19522;45.656;11.302;2023-04-08T01:54:13;98304.22;;;5.84;68.25
33161;BME280;19522;45.656;11.302;2023-04-08T01:56:41;98317.50;;;5.85;68.34
33161;BME280;19522;45.656;11.302;2023-04-08T01:59:11;98317.34;;;5.87;68.06
33161;BME280;19522;45.656;11.302;2023-04-08T02:01:38;98320.47;;;5.74;68.64
33161;BME280;19522;45.656;11.302;2023-04-08T02:04:04;98273.53;;;5.42;68.93
33161;BME280;19522;45.656;11.302;2023-04-08T02:06:30;98307.31;;;5.63;69.21
33161;BME280;19522;45.656;11.302;2023-04-08T02:08:56;98316.44;;;5.70;69.02
33161;BME280;19522;45.656;11.302;2023-04-08T02:11:22;98326.72;;;5.74;68.94
33161;BME280;19522;45.656;11.302;2023-04-08T02:13:47;98325.38;;;5.78;68.90
33161;BME280;19522;45.656;11.302;2023-04-08T02:16:28;98329.78;;;5.80;68.72
33161;BME280;19522;45.656;11.302;2023-04-08T02:18:59;98312.56;;;5.72;68.31
33161;BME280;19522;45.656;11.302;2023-04-08T02:21:31;98328.28;;;5.85;68.31
33161;BME280;19522;45.656;11.302;2023-04-08T02:24:03;98291.00;;;5.72;68.44
33161;BME280;19522;45.656;11.302;2023-04-08T02:26:32;98326.09;;;6.15;67.58
33161;BME280;19522;45.656;11.302;2023-04-08T02:29:01;98327.31;;;5.95;68.07
33161;BME280;19522;45.656;11.302;2023-04-08T02:31:28;98312.00;;;5.60;69.06
33161;BME280;19522;45.656;11.302;2023-04-08T02:33:54;98327.22;;;5.70;69.99
33161;BME280;19522;45.656;11.302;2023-04-08T02:36:21;98306.53;;;5.78;69.46
33161;BME280;19522;45.656;11.302;2023-04-08T02:38:47;98326.06;;;5.81;69.35
33161;BME280;19522;45.656;11.302;2023-04-08T02:41:14;98327.69;;;5.65;69.76
33161;BME280;19522;45.656;11.302;2023-04-08T02:43:41;98329.28;;;5.50;70.36
33161;BME280;19522;45.656;11.302;2023-04-08T02:46:07;98268.09;;;5.07;70.16
33161;BME280;19522;45.656;11.302;2023-04-08T02:48:34;98319.75;;;5.29;71.11
33161;BME280;19522;45.656;11.302;2023-04-08T02:51:00;98326.31;;;5.08;72.76
33161;BME280;19522;45.656;11.302;2023-04-08T02:53:25;98299.19;;;4.83;73.51
33161;BME280;19522;45.656;11.302;2023-04-08T02:55:51;98332.69;;;4.89;74.25
33161;BME280;19522;45.656;11.302;2023-04-08T02:58:16;98313.09;;;4.79;74.29
33161;BME280;19522;45.656;11.302;2023-04-08T03:00:42;98265.41;;;4.45;74.67
33161;BME280;19522;45.656;11.302;2023-04-08T03:03:07;98328.94;;;4.82;74.63
33161;BME280;19522;45.656;11.302;2023-04-08T03:05:33;98317.66;;;4.78;74.51
33161;BME280;19522;45.656;11.302;2023-04-08T03:07:58;98328.72;;;4.93;73.57
33161;BME280;19522;45.656;11.302;2023-04-08T03:10:24;98303.34;;;4.78;74.36
33161;BME280;19522;45.656;11.302;2023-04-08T03:12:50;98274.81;;;4.85;73.40
33161;BME280;19522;45.656;11.302;2023-04-08T03:15:16;98329.06;;;5.17;73.64
33161;BME280;19522;45.656;11.302;2023-04-08T03:17:41;98296.00;;;5.06;73.45
33161;BME280;19522;45.656;11.302;2023-04-08T03:20:07;98297.06;;;5.13;73.09
33161;BME280;19522;45.656;11.302;2023-04-08T03:22:33;98297.72;;;5.34;72.19
33161;BME280;19522;45.656;11.302;2023-04-08T03:24:59;98287.88;;;5.24;71.51
33161;BME280;19522;45.656;11.302;2023-04-08T03:27:24;98321.19;;;5.50;71.32
33161;BME280;19522;45.656;11.302;2023-04-08T03:29:50;98322.06;;;5.50;70.59
33161;BME280;19522;45.656;11.302;2023-04-08T03:32:17;98318.88;;;5.28;71.26
33161;BME280;19522;45.656;11.302;2023-04-08T03:34:43;98269.81;;;4.90;71.58
33161;BME280;19522;45.656;11.302;2023-04-08T03:37:08;98328.44;;;5.23;71.52
33161;BME280;19522;45.656;11.302;2023-04-08T03:39:34;98330.22;;;5.14;72.00
33161;BME280;19522;45.656;11.302;2023-04-08T03:41:59;98327.16;;;5.09;71.92
33161;BME280;19522;45.656;11.302;2023-04-08T03:44:27;98329.94;;;4.99;72.36
33161;BME280;19522;45.656;11.302;2023-04-08T03:46:52;98327.72;;;4.94;72.72
33161;BME280;19522;45.656;11.302;2023-04-08T03:49:18;98304.44;;;4.85;73.32
33161;BME280;19522;45.656;11.302;2023-04-08T03:51:43;98318.72;;;5.04;73.18
33161;BME280;19522;45.656;11.302;2023-04-08T03:54:09;98340.84;;;4.97;72.90
33161;BME280;19522;45.656;11.302;2023-04-08T03:56:34;98287.28;;;4.68;72.65
33161;BME280;19522;45.656;11.302;2023-04-08T03:59:00;98344.88;;;4.93;72.80
33161;BME280;19522;45.656;11.302;2023-04-08T04:01:25;98326.09;;;4.83;72.27
33161;BME280;19522;45.656;11.302;2023-04-08T04:03:51;98311.09;;;4.81;71.56
33161;BME280;19522;45.656;11.302;2023-04-08T04:06:16;98305.34;;;4.76;71.58
33161;BME280;19522;45.656;11.302;2023-04-08T04:08:42;98341.59;;;5.08;71.13
33161;BME280;19522;45.656;11.302;2023-04-08T04:11:07;98337.22;;;5.07;71.28
33161;BME280;19522;45.656;11.302;2023-04-08T04:13:33;98335.56;;;5.32;70.57
33161;BME280;19522;45.656;11.302;2023-04-08T04:15:58;98313.78;;;5.25;70.26
33161;BME280;19522;45.656;11.302;2023-04-08T04:18:23;98265.13;;;4.92;70.18
33161;BME280;19522;45.656;11.302;2023-04-08T04:20:49;98334.72;;;5.32;70.31
33161;BME280;19522;45.656;11.302;2023-04-08T04:23:14;98337.28;;;5.15;71.04
33161;BME280;19522;45.656;11.302;2023-04-08T04:25:40;98326.69;;;4.95;71.46
33161;BME280;19522;45.656;11.302;2023-04-08T04:28:06;98335.47;;;4.97;72.41
33161;BME280;19522;45.656;11.302;2023-04-08T04:30:35;98322.94;;;4.88;72.54
33161;BME280;19522;45.656;11.302;2023-04-08T04:33:01;98320.16;;;4.98;72.11
33161;BME280;19522;45.656;11.302;2023-04-08T04:35:26;98334.53;;;5.07;72.41
33161;BME280;19522;45.656;11.302;2023-04-08T04:37:52;98332.97;;;5.22;71.92
33161;BME280;19522;45.656;11.302;2023-04-08T04:40:17;98333.44;;;5.18;72.08
33161;BME280;19522;45.656;11.302;2023-04-08T04:42:43;98321.75;;;5.09;72.41
33161;BME280;19522;45.656;11.302;2023-04-08T04:45:09;98331.88;;;5.15;72.03
33161;BME280;19522;45.656;11.302;2023-04-08T04:47:34;98333.63;;;5.24;71.78
33161;BME280;19522;45.656;11.302;2023-04-08T04:50:00;98324.94;;;5.30;71.11
33161;BME280;19522;45.656;11.302;2023-04-08T04:52:25;98298.81;;;5.49;69.77
33161;BME280;19522;45.656;11.302;2023-04-08T04:54:51;98336.84;;;5.81;69.50
33161;BME280;19522;45.656;11.302;2023-04-08T04:57:16;98334.97;;;5.73;69.46
33161;BME280;19522;45.656;11.302;2023-04-08T04:59:42;98287.78;;;5.34;69.73
33161;BME280;19522;45.656;11.302;2023-04-08T05:02:07;98328.31;;;5.59;70.19
33161;BME280;19522;45.656;11.302;2023-04-08T05:04:33;98297.44;;;5.45;69.66
33161;BME280;19522;45.656;11.302;2023-04-08T05:06:59;98312.81;;;5.53;69.52
33161;BME280;19522;45.656;11.302;2023-04-08T05:09:25;98329.44;;;5.74;69.62
33161;BME280;19522;45.656;11.302;2023-04-08T05:11:50;98313.28;;;5.83;68.88
33161;BME280;19522;45.656;11.302;2023-04-08T05:14:16;98330.06;;;6.03;68.06
33161;BME280;19522;45.656;11.302;2023-04-08T05:16:41;98332.63;;;6.04;67.82
33161;BME280;19522;45.656;11.302;2023-04-08T05:19:07;98337.69;;;6.07;68.12
33161;BME280;19522;45.656;11.302;2023-04-08T05:21:32;98316.31;;;6.14;67.86
33161;BME280;19522;45.656;11.302;2023-04-08T05:23:58;98334.69;;;6.19;68.13
33161;BME280;19522;45.656;11.302;2023-04-08T05:26:26;98337.38;;;6.11;68.95
33161;BME280;19522;45.656;11.302;2023-04-08T05:28:52;98335.00;;;6.16;68.94
33161;BME280;19522;45.656;11.302;2023-04-08T05:31:18;98335.66;;;6.61;67.41
33161;BME280;19522;45.656;11.302;2023-04-08T05:33:44;98337.19;;;6.63;67.65
33161;BME280;19522;45.656;11.302;2023-04-08T05:36:10;98347.06;;;6.30;69.42
33161;BME280;19522;45.656;11.302;2023-04-08T05:38:36;98339.59;;;6.23;68.99
33161;BME280;19522;45.656;11.302;2023-04-08T05:41:02;98340.31;;;6.42;69.05
33161;BME280;19522;45.656;11.302;2023-04-08T05:43:28;98345.03;;;6.40;69.49
33161;BME280;19522;45.656;11.302;2023-04-08T05:45:53;98324.09;;;6.26;69.16
33161;BME280;19522;45.656;11.302;2023-04-08T05:48:19;98353.50;;;6.45;68.67
33161;BME280;19522;45.656;11.302;2023-04-08T05:50:44;98355.91;;;6.57;67.83
33161;BME280;19522;45.656;11.302;2023-04-08T05:53:12;98356.50;;;6.42;68.78
33161;BME280;19522;45.656;11.302;2023-04-08T05:55:39;98355.88;;;6.48;68.88
33161;BME280;19522;45.656;11.302;2023-04-08T05:58:05;98358.28;;;6.68;68.09
33161;BME280;19522;45.656;11.302;2023-04-08T06:00:30;98340.72;;;6.55;67.84
33161;BME280;19522;45.656;11.302;2023-04-08T06:02:56;98335.38;;;6.21;68.18
33161;BME280;19522;45.656;11.302;2023-04-08T06:05:21;98367.69;;;6.55;68.37
33161;BME280;19522;45.656;11.302;2023-04-08T06:07:47;98339.69;;;6.48;67.23
33161;BME280;19522;45.656;11.302;2023-04-08T06:10:12;98347.22;;;6.36;67.27
33161;BME280;19522;45.656;11.302;2023-04-08T06:12:38;98348.28;;;6.52;66.54
33161;BME280;19522;45.656;11.302;2023-04-08T06:15:05;98335.81;;;6.59;66.95
33161;BME280;19522;45.656;11.302;2023-04-08T06:17:31;98365.72;;;6.91;66.55
33161;BME280;19522;45.656;11.302;2023-04-08T06:19:56;98370.13;;;7.08;66.21
33161;BME280;19522;45.656;11.302;2023-04-08T06:22:22;98362.03;;;7.25;64.88
33161;BME280;19522;45.656;11.302;2023-04-08T06:24:47;98351.56;;;7.22;64.89
33161;BME280;19522;45.656;11.302;2023-04-08T06:27:13;98368.63;;;7.30;65.41
33161;BME280;19522;45.656;11.302;2023-04-08T06:29:38;98348.53;;;7.25;65.79
33161;BME280;19522;45.656;11.302;2023-04-08T06:32:05;98378.06;;;7.43;65.96
33161;BME280;19522;45.656;11.302;2023-04-08T06:34:30;98368.44;;;7.48;65.62
33161;BME280;19522;45.656;11.302;2023-04-08T06:36:56;98336.34;;;7.45;65.47
33161;BME280;19522;45.656;11.302;2023-04-08T06:39:22;98355.22;;;7.70;64.98
33161;BME280;19522;45.656;11.302;2023-04-08T06:41:47;98372.59;;;7.84;64.61
33161;BME280;19522;45.656;11.302;2023-04-08T06:44:13;98353.97;;;7.89;64.36
33161;BME280;19522;45.656;11.302;2023-04-08T06:46:38;98358.66;;;8.12;64.15
33161;BME280;19522;45.656;11.302;2023-04-08T06:49:04;98364.16;;;8.27;63.76
33161;BME280;19522;45.656;11.302;2023-04-08T06:51:31;98358.53;;;8.37;63.45
33161;BME280;19522;45.656;11.302;2023-04-08T06:53:56;98355.78;;;8.53;63.22
33161;BME280;19522;45.656;11.302;2023-04-08T06:56:22;98363.16;;;8.68;63.03
33161;BME280;19522;45.656;11.302;2023-04-08T06:58:50;98362.94;;;8.78;62.92
33161;BME280;19522;45.656;11.302;2023-04-08T07:01:16;98357.09;;;8.89;62.21
33161;BME280;19522;45.656;11.302;2023-04-08T07:03:42;98364.16;;;8.98;62.01
33161;BME280;19522;45.656;11.302;2023-04-08T07:06:07;98354.63;;;9.02;61.40
33161;BME280;19522;45.656;11.302;2023-04-08T07:08:33;98358.66;;;9.30;61.57
33161;BME280;19522;45.656;11.302;2023-04-08T07:10:58;98364.22;;;9.51;61.29
33161;BME280;19522;45.656;11.302;2023-04-08T07:13:24;98356.75;;;9.69;60.59
33161;BME280;19522;45.656;11.302;2023-04-08T07:15:49;98341.91;;;9.79;59.26
33161;BME280;19522;45.656;11.302;2023-04-08T07:18:14;98348.44;;;10.15;58.48
33161;BME280;19522;45.656;11.302;2023-04-08T07:20:40;98356.47;;;10.53;57.77
33161;BME280;19522;45.656;11.302;2023-04-08T07:23:06;98345.63;;;10.90;56.42
33161;BME280;19522;45.656;11.302;2023-04-08T07:25:32;98360.78;;;11.49;54.92
33161;BME280;19522;45.656;11.302;2023-04-08T07:27:59;98351.75;;;11.99;52.04
33161;BME280;19522;45.656;11.302;2023-04-08T07:30:25;98346.13;;;12.42;50.19
33161;BME280;19522;45.656;11.302;2023-04-08T07:32:50;98260.16;;;12.20;48.76
33161;BME280;19522;45.656;11.302;2023-04-08T07:35:16;98348.34;;;12.74;47.13
33161;BME280;19522;45.656;11.302;2023-04-08T07:37:48;98343.91;;;12.66;46.57
33161;BME280;19522;45.656;11.302;2023-04-08T07:40:14;98324.81;;;12.53;46.63
33161;BME280;19522;45.656;11.302;2023-04-08T07:42:39;98330.81;;;12.97;46.72
33161;BME280;19522;45.656;11.302;2023-04-08T07:45:06;98352.97;;;12.80;46.48
33161;BME280;19522;45.656;11.302;2023-04-08T07:47:31;98362.56;;;12.21;47.75
33161;BME280;19522;45.656;11.302;2023-04-08T07:49:57;98349.44;;;11.96;47.29
33161;BME280;19522;45.656;11.302;2023-04-08T07:52:22;98355.91;;;11.95;48.21
33161;BME280;19522;45.656;11.302;2023-04-08T07:54:48;98366.47;;;11.76;48.31
33161;BME280;19522;45.656;11.302;2023-04-08T07:57:13;98340.41;;;11.10;49.33
33161;BME280;19522;45.656;11.302;2023-04-08T07:59:39;98367.38;;;11.33;49.78
33161;BME280;19522;45.656;11.302;2023-04-08T08:02:05;98282.03;;;10.63;50.34
33161;BME280;19522;45.656;11.302;2023-04-08T08:04:31;98374.03;;;11.09;51.41
33161;BME280;19522;45.656;11.302;2023-04-08T08:06:56;98356.28;;;11.35;51.07
33161;BME280;19522;45.656;11.302;2023-04-08T08:09:22;98359.97;;;11.49;49.11
33161;BME280;19522;45.656;11.302;2023-04-08T08:11:47;98356.34;;;11.70;49.48
33161;BME280;19522;45.656;11.302;2023-04-08T08:14:13;98356.69;;;11.89;49.85
33161;BME280;19522;45.656;11.302;2023-04-08T08:16:39;98368.34;;;12.04;49.02
33161;BME280;19522;45.656;11.302;2023-04-08T08:19:06;98355.47;;;12.26;48.90
33161;BME280;19522;45.656;11.302;2023-04-08T08:21:35;98369.69;;;12.22;48.68
33161;BME280;19522;45.656;11.302;2023-04-08T08:24:01;98376.88;;;12.29;48.41
33161;BME280;19522;45.656;11.302;2023-04-08T08:26:27;98363.88;;;11.96;49.31
33161;BME280;19522;45.656;11.302;2023-04-08T08:28:53;98363.81;;;12.18;49.59
33161;BME280;19522;45.656;11.302;2023-04-08T08:31:18;98374.09;;;12.23;49.05
33161;BME280;19522;45.656;11.302;2023-04-08T08:33:44;98381.41;;;12.15;49.90
33161;BME280;19522;45.656;11.302;2023-04-08T08:36:11;98364.16;;;12.02;51.46
33161;BME280;19522;45.656;11.302;2023-04-08T08:38:36;98347.84;;;12.08;50.13
33161;BME280;19522;45.656;11.302;2023-04-08T08:41:05;98372.75;;;12.05;50.14
33161;BME280;19522;45.656;11.302;2023-04-08T08:43:30;98379.81;;;12.35;50.21
33161;BME280;19522;45.656;11.302;2023-04-08T08:45:59;98400.47;;;12.57;50.30
33161;BME280;19522;45.656;11.302;2023-04-08T08:48:26;98379.75;;;12.70;49.54
33161;BME280;19522;45.656;11.302;2023-04-08T08:50:51;98395.94;;;12.85;48.67
33161;BME280;19522;45.656;11.302;2023-04-08T08:53:17;98380.97;;;12.54;48.86
33161;BME280;19522;45.656;11.302;2023-04-08T08:55:44;98366.09;;;12.56;49.44
33161;BME280;19522;45.656;11.302;2023-04-08T08:58:09;98388.81;;;12.77;49.22
33161;BME280;19522;45.656;11.302;2023-04-08T09:00:41;98393.88;;;12.93;49.98
33161;BME280;19522;45.656;11.302;2023-04-08T09:03:20;98400.00;;;13.09;48.97
33161;BME280;19522;45.656;11.302;2023-04-08T09:05:54;98392.03;;;13.07;49.27
33161;BME280;19522;45.656;11.302;2023-04-08T09:10:55;98376.81;;;13.47;48.83
33161;BME280;19522;45.656;11.302;2023-04-08T09:13:23;98372.84;;;13.56;47.58
33161;BME280;19522;45.656;11.302;2023-04-08T09:16:12;98371.38;;;13.80;47.04
33161;BME280;19522;45.656;11.302;2023-04-08T09:18:39;98393.59;;;13.44;47.33
33161;BME280;19522;45.656;11.302;2023-04-08T09:21:08;98381.00;;;13.43;47.18
33161;BME280;19522;45.656;11.302;2023-04-08T09:23:41;98384.38;;;13.51;46.67
33161;BME280;19522;45.656;11.302;2023-04-08T09:26:11;98362.56;;;13.58;47.82
33161;BME280;19522;45.656;11.302;2023-04-08T09:28:38;98386.06;;;13.86;45.68
33161;BME280;19522;45.656;11.302;2023-04-08T09:33:43;98355.63;;;13.49;45.80
33161;BME280;19522;45.656;11.302;2023-04-08T09:36:09;98356.00;;;13.32;47.41
33161;BME280;19522;45.656;11.302;2023-04-08T09:38:34;98368.22;;;13.63;47.59
33161;BME280;19522;45.656;11.302;2023-04-08T09:41:02;98370.53;;;13.73;46.63
33161;BME280;19522;45.656;11.302;2023-04-08T09:43:31;98370.09;;;14.03;46.06
33161;BME280;19522;45.656;11.302;2023-04-08T09:46:00;98360.22;;;14.09;45.72
33161;BME280;19522;45.656;11.302;2023-04-08T09:48:31;98373.22;;;14.00;44.88
33161;BME280;19522;45.656;11.302;2023-04-08T09:51:00;98354.34;;;13.85;45.29
33161;BME280;19522;45.656;11.302;2023-04-08T09:53:35;98323.50;;;13.64;44.43
33161;BME280;19522;45.656;11.302;2023-04-08T09:56:06;98356.25;;;13.78;45.29
33161;BME280;19522;45.656;11.302;2023-04-08T09:58:38;98330.22;;;13.68;44.42
33161;BME280;19522;45.656;11.302;2023-04-08T10:01:04;98344.53;;;14.43;43.95
33161;BME280;19522;45.656;11.302;2023-04-08T10:03:39;98349.09;;;14.62;43.95
33161;BME280;19522;45.656;11.302;2023-04-08T10:06:05;98341.47;;;14.19;43.01
33161;BME280;19522;45.656;11.302;2023-04-08T10:08:32;98308.81;;;13.65;44.17
33161;BME280;19522;45.656;11.302;2023-04-08T10:10:59;98349.13;;;13.83;44.43
33161;BME280;19522;45.656;11.302;2023-04-08T10:13:26;98363.31;;;14.19;44.44
33161;BME280;19522;45.656;11.302;2023-04-08T10:16:23;98367.38;;;13.90;42.14
33161;BME280;19522;45.656;11.302;2023-04-08T10:18:52;98365.69;;;13.89;42.34
33161;BME280;19522;45.656;11.302;2023-04-08T10:24:10;98362.94;;;13.82;41.66
33161;BME280;19522;45.656;11.302;2023-04-08T10:26:44;98352.03;;;13.82;41.40
33161;BME280;19522;45.656;11.302;2023-04-08T10:31:46;98365.91;;;13.74;34.33
33161;BME280;19522;45.656;11.302;2023-04-08T10:36:42;98342.31;;;14.13;35.22
33161;BME280;19522;45.656;11.302;2023-04-08T10:39:08;98365.59;;;14.36;34.42
33161;BME280;19522;45.656;11.302;2023-04-08T10:41:33;98359.88;;;14.44;32.60
33161;BME280;19522;45.656;11.302;2023-04-08T10:44:02;98363.84;;;14.48;33.12
33161;BME280;19522;45.656;11.302;2023-04-08T10:46:28;98352.81;;;14.23;31.98
33161;BME280;19522;45.656;11.302;2023-04-08T10:49:00;98369.41;;;14.21;32.06
33161;BME280;19522;45.656;11.302;2023-04-08T10:51:32;98341.34;;;13.94;32.45
33161;BME280;19522;45.656;11.302;2023-04-08T10:54:10;98352.38;;;14.26;31.80
33161;BME280;19522;45.656;11.302;2023-04-08T10:56:46;98368.47;;;14.47;31.88
33161;BME280;19522;45.656;11.302;2023-04-08T10:59:12;98371.38;;;14.59;31.20
33161;BME280;19522;45.656;11.302;2023-04-08T11:01:41;98372.44;;;14.58;31.09
33161;BME280;19522;45.656;11.302;2023-04-08T11:04:13;98371.00;;;14.49;31.56
33161;BME280;19522;45.656;11.302;2023-04-08T11:06:41;98366.81;;;14.40;31.87
33161;BME280;19522;45.656;11.302;2023-04-08T11:09:07;98341.44;;;14.26;32.48
33161;BME280;19522;45.656;11.302;2023-04-08T11:11:33;98350.88;;;14.37;32.59
33161;BME280;19522;45.656;11.302;2023-04-08T11:14:00;98326.31;;;14.30;32.17
33161;BME280;19522;45.656;11.302;2023-04-08T11:16:26;98367.00;;;14.52;33.26
33161;BME280;19522;45.656;11.302;2023-04-08T11:18:53;98360.94;;;14.43;32.50
33161;BME280;19522;45.656;11.302;2023-04-08T11:21:21;98350.03;;;14.29;33.70
33161;BME280;19522;45.656;11.302;2023-04-08T11:23:50;98357.31;;;14.56;33.59
33161;BME280;19522;45.656;11.302;2023-04-08T11:26:18;98348.97;;;14.44;33.52
33161;BME280;19522;45.656;11.302;2023-04-08T11:28:44;98359.41;;;14.54;34.23
33161;BME280;19522;45.656;11.302;2023-04-08T11:31:11;98356.00;;;14.72;33.98
33161;BME280;19522;45.656;11.302;2023-04-08T11:33:37;98333.47;;;14.83;34.03
33161;BME280;19522;45.656;11.302;2023-04-08T11:36:11;98347.03;;;14.96;33.30
33161;BME280;19522;45.656;11.302;2023-04-08T11:38:38;98339.44;;;15.05;33.03
33161;BME280;19522;45.656;11.302;2023-04-08T11:41:05;98323.19;;;15.10;33.13
33161;BME280;19522;45.656;11.302;2023-04-08T11:43:30;98342.47;;;15.22;32.62
33161;BME280;19522;45.656;11.302;2023-04-08T11:45:56;98323.50;;;14.50;33.30
33161;BME280;19522;45.656;11.302;2023-04-08T11:48:22;98340.22;;;14.22;33.26
33161;BME280;19522;45.656;11.302;2023-04-08T11:51:01;98331.41;;;13.99;33.75
33161;BME280;19522;45.656;11.302;2023-04-08T11:53:27;98346.00;;;14.39;34.34
33161;BME280;19522;45.656;11.302;2023-04-08T11:55:53;98328.28;;;13.96;33.51
33161;BME280;19522;45.656;11.302;2023-04-08T11:58:20;98332.66;;;14.17;33.33
33161;BME280;19522;45.656;11.302;2023-04-08T12:00:45;98328.00;;;14.24;34.51
33161;BME280;19522;45.656;11.302;2023-04-08T12:03:12;98331.59;;;14.77;33.19
33161;BME280;19522;45.656;11.302;2023-04-08T12:05:38;98305.53;;;14.74;33.14
33161;BME280;19522;45.656;11.302;2023-04-08T12:08:03;98301.88;;;14.87;32.34
33161;BME280;19522;45.656;11.302;2023-04-08T12:10:29;98300.03;;;15.13;32.32
33161;BME280;19522;45.656;11.302;2023-04-08T12:12:54;98318.59;;;15.36;31.78
33161;BME280;19522;45.656;11.302;2023-04-08T12:15:20;98321.03;;;15.45;32.46
33161;BME280;19522;45.656;11.302;2023-04-08T12:17:46;98317.41;;;15.76;32.14
33161;BME280;19522;45.656;11.302;2023-04-08T12:20:11;98323.03;;;15.81;32.00
33161;BME280;19522;45.656;11.302;2023-04-08T12:22:38;98312.59;;;15.97;32.21
33161;BME280;19522;45.656;11.302;2023-04-08T12:25:04;98299.50;;;15.99;32.13
33161;BME280;19522;45.656;11.302;2023-04-08T12:27:30;98295.41;;;15.89;32.47
33161;BME280;19522;45.656;11.302;2023-04-08T12:30:00;98305.34;;;15.84;31.47
33161;BME280;19522;45.656;11.302;2023-04-08T12:32:25;98307.59;;;15.43;31.48
33161;BME280;19522;45.656;11.302;2023-04-08T12:34:51;98307.78;;;15.16;32.04
33161;BME280;19522;45.656;11.302;2023-04-08T12:37:16;98299.06;;;15.33;32.62
33161;BME280;19522;45.656;11.302;2023-04-08T12:39:42;98307.84;;;15.35;32.56
33161;BME280;19522;45.656;11.302;2023-04-08T12:42:08;98311.47;;;15.03;32.50
33161;BME280;19522;45.656;11.302;2023-04-08T12:44:33;98307.75;;;15.23;32.92
33161;BME280;19522;45.656;11.302;2023-04-08T12:46:59;98290.94;;;15.19;33.23
33161;BME280;19522;45.656;11.302;2023-04-08T12:49:24;98311.34;;;15.23;33.77
33161;BME280;19522;45.656;11.302;2023-04-08T12:51:51;98299.47;;;14.65;33.86
33161;BME280;19522;45.656;11.302;2023-04-08T12:54:16;98308.41;;;14.86;34.60
33161;BME280;19522;45.656;11.302;2023-04-08T12:56:42;98299.72;;;14.96;34.18
33161;BME280;19522;45.656;11.302;2023-04-08T12:59:08;98294.03;;;15.30;34.74
33161;BME280;19522;45.656;11.302;2023-04-08T13:01:34;98296.25;;;15.39;34.51
33161;BME280;19522;45.656;11.302;2023-04-08T13:03:59;98299.31;;;15.24;33.96
33161;BME280;19522;45.656;11.302;2023-04-08T13:06:25;98285.97;;;15.09;33.98
33161;BME280;19522;45.656;11.302;2023-04-08T13:08:51;98265.00;;;14.96;34.41
33161;BME280;19522;45.656;11.302;2023-04-08T13:11:17;98294.84;;;15.30;35.93
33161;BME280;19522;45.656;11.302;2023-04-08T13:13:43;98298.81;;;15.34;35.16
33161;BME280;19522;45.656;11.302;2023-04-08T13:16:10;98291.38;;;15.41;35.04